• Join FlightAware (Why Join?)
  • Login
  • US Flag 
01:00AM EDT


 

Airport Tracker/Info


-or-


 

Live Flight TrackerFlight Track Log ✈ EVA191 ✈ 09-Dec-2013 ✈ RJTT / HND - RCSS / TSA

Flight Track Log - Related Links

Times and Time Zones

All times are in EST time to prevent confusion due to time zone crossing. See the EVA191 flight status page for this flight to view local times or setup timezone preferences in your user account.

Time Position Orientation Groundspeed Altitude Reporting Facility
EST Latitude Longitude Course Direction KTS MPH feet Rate Location/Type
10:35PM 35.5430 139.8510 129° Southeast 146 168 1,900  Level FlightAware ADS-B
10:35PM 35.5340 139.8640 130° Southeast 150 173 2,400 1,920 Climbing FlightAware ADS-B
10:36PM 35.5260 139.8750 132° Southeast 143 165 3,100 1,800 Climbing FlightAware ADS-B
10:36PM 35.5150 139.8900 132° Southeast 155 178 3,700 1,260 Climbing FlightAware ADS-B
10:36PM 35.5100 139.8920 162° South 154 177 3,800 540 Climbing FlightAware ADS-B
10:36PM 35.5070 139.8920 180° South 158 182 3,800 540 Level FlightAware ADS-B
10:36PM 35.5020 139.8900 198° South 170 196 3,900 900 Climbing FlightAware ADS-B
10:36PM 35.4980 139.8880 202° Southwest 179 206 4,000 960 Climbing FlightAware ADS-B
10:37PM 35.4840 139.8760 215° Southwest 209 241 4,300 2,280 Climbing FlightAware ADS-B
10:37PM 35.4690 139.8650 211° Southwest 212 244 5,400 3,780 Climbing FlightAware ADS-B
10:37PM 35.4500 139.8500 213° Southwest 202 232 6,900 2,820 Climbing FlightAware ADS-B
10:38PM 35.4340 139.8390 209° Southwest 225 259 7,400 1,440 Climbing FlightAware ADS-B
10:38PM 35.4210 139.8290 212° Southwest 247 284 7,700 2,100 Climbing FlightAware ADS-B
10:38PM 35.3990 139.8120 212° Southwest 260 299 8,700 2,700 Climbing FlightAware ADS-B
10:39PM 35.3810 139.7980 212° Southwest 269 310 9,500 2,640 Climbing FlightAware ADS-B
10:39PM 35.3490 139.7740 211° Southwest 284 327 10,800 1,860 Climbing FlightAware ADS-B
10:40PM 35.3150 139.7470 213° Southwest 323 372 11,300 1,560 Climbing FlightAware ADS-B
10:40PM 35.3000 139.7290 224° Southwest 326 375 11,900 3,000 Climbing FlightAware ADS-B
10:40PM 35.2830 139.7060 228° Southwest 328 377 12,800 2,460 Climbing FlightAware ADS-B
10:40PM 35.2770 139.6930 241° Southwest 326 375 13,100 2,640 Climbing FlightAware ADS-B
10:41PM 35.2640 139.6170 258° West 338 389 15,000 3,000 Climbing FlightAware ADS-B
10:41PM 35.2530 139.5580 257° West 340 391 16,600 2,880 Climbing FlightAware ADS-B
10:44PM 35.1625 139.3534 242° Southwest  Level Estimated
10:45PM 35.1175 139.2521 242° Southwest  Level Estimated
10:46PM 35.0724 139.1509 241° Southwest  Level Estimated
10:47PM 35.0272 139.0499 241° Southwest  Level Estimated
10:48PM 34.9820 138.9489 241° Southwest  Level Estimated
10:49PM 34.9366 138.8481 241° Southwest  Level Estimated
10:50PM 34.8912 138.7473 241° Southwest  Level Estimated
10:51PM 34.8457 138.6467 241° Southwest  Level Estimated
10:52PM 34.8001 138.5462 241° Southwest  Level Estimated
10:53PM 34.7545 138.4458 241° Southwest  Level Estimated
10:54PM 34.7087 138.3455 241° Southwest  Level Estimated
10:55PM 34.6629 138.2453 241° Southwest  Level Estimated
10:56PM 34.6170 138.1453 241° Southwest  Level Estimated
10:57PM 34.5710 138.0453 241° Southwest  Level Estimated
10:58PM 34.5249 137.9455 241° Southwest  Level Estimated
10:59PM 34.4787 137.8458 241° Southwest  Level Estimated
11:00PM 34.4325 137.7461 241° Southwest  Level Estimated
11:01PM 34.3862 137.6466 241° Southwest  Level Estimated
11:02PM 34.3398 137.5472 241° Southwest  Level Estimated
11:03PM 34.2933 137.4479 240° Southwest  Level Estimated
11:04PM 34.2467 137.3488 240° Southwest  Level Estimated
11:05PM 34.2001 137.2497 240° Southwest  Level Estimated
11:06PM 34.1534 137.1507 240° Southwest  Level Estimated
11:07PM 34.1066 137.0519 240° Southwest  Level Estimated
11:08PM 34.0597 136.9531 240° Southwest  Level Estimated
11:09PM 34.0127 136.8545 240° Southwest  Level Estimated
11:10PM 33.9657 136.7560 240° Southwest  Level Estimated
11:11PM 33.9186 136.6576 240° Southwest  Level Estimated
11:12PM 33.8714 136.5593 240° Southwest  Level Estimated
11:13PM 33.8241 136.4611 240° Southwest  Level Estimated
11:14PM 33.7768 136.3630 240° Southwest  Level Estimated
11:15PM 33.7294 136.2650 240° Southwest  Level Estimated
11:16PM 33.6819 136.1671 240° Southwest  Level Estimated
11:17PM 33.6343 136.0694 240° Southwest  Level Estimated
11:18PM 33.5866 135.9717 240° Southwest  Level Estimated
11:19PM 33.5389 135.8741 240° Southwest  Level Estimated
11:20PM 33.4911 135.7767 240° Southwest  Level Estimated
11:21PM 33.4432 135.6794 239° Southwest  Level Estimated
11:22PM 33.3952 135.5822 239° Southwest  Level Estimated
11:23PM 33.3472 135.4850 239° Southwest  Level Estimated
11:24PM 33.2991 135.3880 239° Southwest  Level Estimated
11:25PM 33.2509 135.2911 239° Southwest  Level Estimated
11:26PM 33.2026 135.1943 239° Southwest  Level Estimated
11:27PM 33.1543 135.0976 239° Southwest  Level Estimated
11:28PM 33.1059 135.0011 239° Southwest  Level Estimated
11:29PM 33.0574 134.9046 239° Southwest  Level Estimated
11:30PM 33.0088 134.8082 239° Southwest  Level Estimated
11:31PM 32.9602 134.7119 239° Southwest  Level Estimated
11:32PM 32.9115 134.6158 239° Southwest  Level Estimated
11:33PM 32.8627 134.5197 239° Southwest  Level Estimated
11:34PM 32.8138 134.4238 239° Southwest  Level Estimated
11:35PM 32.7649 134.3279 239° Southwest  Level Estimated
11:36PM 32.7159 134.2322 239° Southwest  Level Estimated
11:37PM 32.6668 134.1366 239° Southwest  Level Estimated
11:38PM 32.6177 134.0410 239° Southwest  Level Estimated
11:39PM 32.5685 133.9456 239° Southwest  Level Estimated
11:40PM 32.5192 133.8503 238° Southwest  Level Estimated
11:41PM 32.4698 133.7551 238° Southwest  Level Estimated
11:42PM 32.4204 133.6600 238° Southwest  Level Estimated
11:43PM 32.3709 133.5650 238° Southwest  Level Estimated
11:44PM 32.3213 133.4701 238° Southwest  Level Estimated
11:45PM 32.2716 133.3753 238° Southwest  Level Estimated
11:46PM 32.2219 133.2806 238° Southwest  Level Estimated
11:47PM 32.1721 133.1860 238° Southwest  Level Estimated
11:48PM 32.1223 133.0915 238° Southwest  Level Estimated
11:49PM 32.0723 132.9971 238° Southwest  Level Estimated
11:50PM 32.0223 132.9029 238° Southwest  Level Estimated
11:51PM 31.9723 132.8087 238° Southwest  Level Estimated
11:52PM 31.9221 132.7146 238° Southwest  Level Estimated
11:53PM 31.8719 132.6207 238° Southwest  Level Estimated
11:54PM 31.8216 132.5268 238° Southwest  Level Estimated
11:55PM 31.7713 132.4330 238° Southwest  Level Estimated
11:56PM 31.7209 132.3394 238° Southwest  Level Estimated
11:57PM 31.6704 132.2458 238° Southwest  Level Estimated
11:58PM 31.6198 132.1523 238° Southwest  Level Estimated
11:59PM 31.5692 132.0590 238° Southwest  Level Estimated
12:00AM 31.5185 131.9657 237° Southwest  Level Estimated
12:01AM 31.4678 131.8726 237° Southwest  Level Estimated
12:02AM 31.4170 131.7795 237° Southwest  Level Estimated
12:03AM 31.3661 131.6866 237° Southwest  Level Estimated
12:04AM 31.3151 131.5937 237° Southwest  Level Estimated
12:05AM 31.2641 131.5010 237° Southwest  Level Estimated
12:06AM 31.2130 131.4083 237° Southwest  Level Estimated
12:07AM 31.1618 131.3158 237° Southwest  Level Estimated
12:08AM 31.1106 131.2233 237° Southwest  Level Estimated
12:09AM 31.0593 131.1310 237° Southwest  Level Estimated
12:10AM 31.0080 131.0387 237° Southwest  Level Estimated
12:11AM 30.9566 130.9466 237° Southwest  Level Estimated
12:12AM 30.9051 130.8545 237° Southwest  Level Estimated
12:13AM 30.8535 130.7626 237° Southwest  Level Estimated
12:14AM 30.8019 130.6707 237° Southwest  Level Estimated
12:15AM 30.7502 130.5790 237° Southwest  Level Estimated
12:16AM 30.6985 130.4873 237° Southwest  Level Estimated
12:17AM 30.6467 130.3957 237° Southwest  Level Estimated
12:18AM 30.5948 130.3043 237° Southwest  Level Estimated
12:19AM 30.5429 130.2129 237° Southwest  Level Estimated
12:20AM 30.4909 130.1216 237° Southwest  Level Estimated
12:21AM 30.4388 130.0305 236° Southwest  Level Estimated
12:22AM 30.3867 129.9394 236° Southwest  Level Estimated
12:23AM 30.3345 129.8484 236° Southwest  Level Estimated
12:24AM 30.2822 129.7576 236° Southwest  Level Estimated
12:25AM 30.2299 129.6668 236° Southwest  Level Estimated
12:26AM 30.1776 129.5761 236° Southwest  Level Estimated
12:27AM 30.1251 129.4855 236° Southwest  Level Estimated
12:28AM 30.0726 129.3950 236° Southwest  Level Estimated
12:29AM 30.0201 129.3046 236° Southwest  Level Estimated
12:30AM 29.9674 129.2143 236° Southwest  Level Estimated
12:31AM 29.9147 129.1241 236° Southwest  Level Estimated
12:32AM 29.8620 129.0340 236° Southwest  Level Estimated
12:33AM 29.8092 128.9440 236° Southwest  Level Estimated
12:34AM 29.7563 128.8541 236° Southwest  Level Estimated
12:35AM 29.7034 128.7643 236° Southwest  Level Estimated
12:36AM 29.6504 128.6745 236° Southwest  Level Estimated
12:37AM 29.5973 128.5849 236° Southwest  Level Estimated
12:38AM 29.5442 128.4954 236° Southwest  Level Estimated
12:39AM 29.4911 128.4059 236° Southwest  Level Estimated
12:40AM 29.4378 128.3166 236° Southwest  Level Estimated
12:41AM 29.3845 128.2273 236° Southwest  Level Estimated
12:42AM 29.3312 128.1381 236° Southwest  Level Estimated
12:43AM 29.2778 128.0491 236° Southwest  Level Estimated
12:44AM 29.2243 127.9601 235° Southwest  Level Estimated
12:45AM 29.1708 127.8712 235° Southwest  Level Estimated
12:46AM 29.1172 127.7824 235° Southwest  Level Estimated
12:47AM 29.0636 127.6937 235° Southwest  Level Estimated
12:48AM 29.0098 127.6051 235° Southwest  Level Estimated
12:49AM 28.9561 127.5166 235° Southwest  Level Estimated
12:50AM 28.9023 127.4282 235° Southwest  Level Estimated
12:51AM 28.8484 127.3398 235° Southwest  Level Estimated
12:52AM 28.7945 127.2516 235° Southwest  Level Estimated
12:53AM 28.7405 127.1634 235° Southwest  Level Estimated
12:54AM 28.6864 127.0754 235° Southwest  Level Estimated
12:55AM 28.6323 126.9874 235° Southwest  Level Estimated
12:56AM 28.5781 126.8995 235° Southwest  Level Estimated
12:57AM 28.5239 126.8117 235° Southwest  Level Estimated
12:58AM 28.4697 126.7240 235° Southwest  Level Estimated
12:59AM 28.4153 126.6364 235° Southwest  Level Estimated
01:00AM 28.3609 126.5489 235° Southwest  Level Estimated
01:01AM 28.3065 126.4615 235° Southwest  Level Estimated
01:02AM 28.2520 126.3741 235° Southwest  Level Estimated
01:03AM 28.1974 126.2869 235° Southwest  Level Estimated
01:04AM 28.1428 126.1997 235° Southwest  Level Estimated
01:05AM 28.0882 126.1127 235° Southwest  Level Estimated
01:06AM 28.0334 126.0257 235° Southwest  Level Estimated
01:07AM 27.9787 125.9388 234° Southwest  Level Estimated
01:08AM 27.9238 125.8520 234° Southwest  Level Estimated
01:09AM 27.8690 125.7653 234° Southwest  Level Estimated
01:10AM 27.8140 125.6786 234° Southwest  Level Estimated
01:11AM 27.7590 125.5921 234° Southwest  Level Estimated
01:12AM 27.7040 125.5057 234° Southwest  Level Estimated
01:13AM 27.6489 125.4193 234° Southwest  Level Estimated
01:14AM 27.5937 125.3330 234° Southwest  Level Estimated
01:15AM 27.5385 125.2468 234° Southwest  Level Estimated
01:16AM 27.4833 125.1607 234° Southwest  Level Estimated
01:17AM 27.4279 125.0747 234° Southwest  Level Estimated
01:18AM 27.3726 124.9888 234° Southwest  Level Estimated
01:19AM 27.3172 124.9029 234° Southwest  Level Estimated
01:20AM 27.2617 124.8171 234° Southwest  Level Estimated
01:21AM 27.2062 124.7315 234° Southwest  Level Estimated
01:22AM 27.1506 124.6459 234° Southwest  Level Estimated
01:23AM 27.0950 124.5604 234° Southwest  Level Estimated
01:24AM 27.0393 124.4750 234° Southwest  Level Estimated
01:25AM 26.9836 124.3896 234° Southwest  Level Estimated
01:26AM 26.9278 124.3044 234° Southwest  Level Estimated
01:27AM 26.8720 124.2192 234° Southwest  Level Estimated
01:28AM 26.8161 124.1341 234° Southwest  Level Estimated
01:29AM 26.7602 124.0491 234° Southwest  Level Estimated
01:30AM 26.7042 123.9642 234° Southwest  Level Estimated
01:31AM 26.6481 123.8794 234° Southwest  Level Estimated
01:32AM 26.5921 123.7946 234° Southwest  Level Estimated
01:33AM 26.5359 123.7100 233° Southwest  Level Estimated
01:34AM 26.4797 123.6254 233° Southwest  Level Estimated
01:35AM 26.4235 123.5409 233° Southwest  Level Estimated
01:36AM 26.3672 123.4565 233° Southwest  Level Estimated
01:37AM 26.3109 123.3722 233° Southwest  Level Estimated
01:38AM 26.2545 123.2879 233° Southwest  Level Estimated
01:39AM 26.1981 123.2037 233° Southwest  Level Estimated
01:40AM 26.1416 123.1197 233° Southwest  Level Estimated
01:41AM 26.0851 123.0356 233° Southwest  Level Estimated
01:42AM 26.0285 122.9517 233° Southwest  Level Estimated
01:43AM 25.9719 122.8679 233° Southwest  Level Estimated
01:44AM 25.9152 122.7841 233° Southwest  Level Estimated
01:45AM 25.8585 122.7004 233° Southwest  Level Estimated
01:46AM 25.8017 122.6168 233° Southwest  Level Estimated
01:47AM 25.7449 122.5333 233° Southwest  Level Estimated
01:48AM 25.6880 122.4499 233° Southwest  Level Estimated
01:49AM 25.6311 122.3665 233° Southwest  Level Estimated
01:50AM 25.5741 122.2832 233° Southwest  Level Estimated
01:51AM 25.5171 122.2000 233° Southwest  Level Estimated
01:52AM 25.4601 122.1169 233° Southwest  Level Estimated
01:53AM 25.4030 122.0338 233° Southwest  Level Estimated
01:54AM 25.3458 121.9509 233° Southwest  Level Estimated
01:55AM 25.2886 121.8680 233° Southwest  Level Estimated
01:56AM 25.2314 121.7852 233° Southwest  Level Estimated
01:57AM 25.1741 121.7024 233° Southwest  Level Estimated
01:58AM 25.1168 121.6198 233° Southwest  Level Estimated
01:59AM 25.0694 121.5517 233° Southwest  Level Estimated
02:00AM 25.0694 121.5517 326° Northwest  Level Estimated
02:01AM 25.0694 121.5517 326° Northwest  Level Estimated
02:02AM 25.0694 121.5517 326° Northwest  Level Estimated
02:03AM 25.0694 121.5517 326° Northwest  Level Estimated
02:04AM 25.0694 121.5517 326° Northwest  Level Estimated
02:05AM 25.0694 121.5517 326° Northwest  Level Estimated
02:06AM 25.0694 121.5517 326° Northwest  Level Estimated
02:07AM 25.0694 121.5517 326° Northwest  Level Estimated
02:08AM 25.0694 121.5517 326° Northwest  Level Estimated
02:09AM 25.0694 121.5517 326° Northwest  Level Estimated
02:10AM 25.0694 121.5517 326° Northwest  Level Estimated